Wetterdaten: aktuell Samstag, 24.02.2018 06:54
Datum Zeit Temp. A. Feuchte A. Luftdruck Regen Wind Richtung Richtung Taupunkt Windchill Windben
24.02.2018 06:54 -7,6 C 79 % 1021,8 hPa 0,0 l/m 10,5 km/h (2 Bft) NW 312 -10,6 C -12,6 C 14,5 km/h (3 Bft)
24.02.2018 06:53 -7,6 C 78 % 1021,7 hPa 0,0 l/m 8,6 km/h (2 Bft) NW 319 -10,8 C -11,9 C 12,9 km/h (3 Bft)
24.02.2018 06:52 -7,7 C 79 % 1021,7 hPa 0,0 l/m 11,3 km/h (2 Bft) W-NW 298 -10,7 C -12,9 C 16,1 km/h (3 Bft)
24.02.2018 06:50 -7,7 C 79 % 1021,8 hPa 0,0 l/m 9,1 km/h (2 Bft) NW 311 -10,7 C -12,2 C 12,9 km/h (3 Bft)
24.02.2018 06:49 -7,7 C 79 % 1021,7 hPa 0,0 l/m 10,5 km/h (2 Bft) NW 310 -10,7 C -12,7 C 14,5 km/h (3 Bft)
24.02.2018 06:48 -7,8 C 79 % 1021,7 hPa 0,0 l/m 11,1 km/h (2 Bft) N-NW 345 -10,8 C -13,0 C 14,5 km/h (3 Bft)
24.02.2018 06:47 -7,8 C 79 % 1021,7 hPa 0,0 l/m 12,2 km/h (2 Bft) N-NW 331 -10,8 C -13,3 C 16,1 km/h (3 Bft)
24.02.2018 06:46 -7,9 C 79 % 1021,7 hPa 0,0 l/m 8,0 km/h (2 Bft) NW 306 -10,9 C -12,0 C 12,9 km/h (3 Bft)
24.02.2018 06:45 -7,9 C 79 % 1021,7 hPa 0,0 l/m 8,9 km/h (2 Bft) NW 313 -10,9 C -12,4 C 12,9 km/h (3 Bft)
24.02.2018 06:44 -8,0 C 78 % 1021,7 hPa 0,0 l/m 7,7 km/h (2 Bft) N-NW 347 -11,1 C -12,0 C 12,9 km/h (3 Bft)
24.02.2018 06:43 -8,0 C 78 % 1021,7 hPa 0,0 l/m 7,6 km/h (2 Bft) NW 311 -11,1 C -12,0 C 11,3 km/h (2 Bft)
24.02.2018 06:41 -7,9 C 78 % 1021,7 hPa 0,0 l/m 8,0 km/h (2 Bft) W-NW 293 -11,0 C -12,0 C 9,7 km/h (2 Bft)
24.02.2018 06:40 -7,9 C 78 % 1021,7 hPa 0,0 l/m 7,1 km/h (2 Bft) NW 304 -11,0 C -11,6 C 9,7 km/h (2 Bft)
24.02.2018 06:39 -7,9 C 78 % 1021,7 hPa 0,0 l/m 7,4 km/h (2 Bft) W-NW 301 -11,0 C -11,8 C 9,7 km/h (2 Bft)
24.02.2018 06:38 -7,9 C 78 % 1021,6 hPa 0,0 l/m 7,3 km/h (2 Bft) W-NW 299 -11,0 C -11,7 C 9,7 km/h (2 Bft)
24.02.2018 06:37 -7,9 C 78 % 1021,7 hPa 0,0 l/m 8,4 km/h (2 Bft) W-NW 300 -11,0 C -12,2 C 11,3 km/h (2 Bft)
24.02.2018 06:35 -7,8 C 78 % 1021,7 hPa 0,0 l/m 7,3 km/h (2 Bft) W-NW 303 -10,9 C -11,6 C 11,3 km/h (2 Bft)
24.02.2018 06:34 -7,8 C 78 % 1021,6 hPa 0,0 l/m 6,3 km/h (2 Bft) W-NW 302 -10,9 C -11,1 C 9,7 km/h (2 Bft)
24.02.2018 06:33 -7,8 C 78 % 1021,6 hPa 0,0 l/m 7,7 km/h (2 Bft) W-NW 291 -10,9 C -11,8 C 11,3 km/h (2 Bft)
24.02.2018 06:32 -7,8 C 78 % 1021,7 hPa 0,0 l/m 7,0 km/h (2 Bft) W-NW 282 -10,9 C -11,5 C 8,0 km/h (2 Bft)
24.02.2018 06:31 -7,7 C 78 % 1021,7 hPa 0,0 l/m 5,4 km/h (2 Bft) W 279 -10,9 C -10,6 C 8,0 km/h (2 Bft)
24.02.2018 06:30 -7,7 C 78 % 1021,6 hPa 0,0 l/m 6,2 km/h (2 Bft) W-NW 294 -10,9 C -11,0 C 9,7 km/h (2 Bft)
24.02.2018 06:29 -7,7 C 79 % 1021,6 hPa 0,0 l/m 6,2 km/h (2 Bft) W-NW 296 -10,7 C -11,0 C 8,0 km/h (2 Bft)
24.02.2018 06:28 -7,7 C 78 % 1021,6 hPa 0,0 l/m 6,5 km/h (2 Bft) W-NW 294 -10,9 C -11,1 C 9,7 km/h (2 Bft)
24.02.2018 06:26 -7,8 C 79 % 1021,5 hPa 0,0 l/m 7,2 km/h (2 Bft) NW 317 -10,8 C -11,6 C 11,3 km/h (2 Bft)
24.02.2018 06:25 -7,8 C 79 % 1021,5 hPa 0,0 l/m 6,7 km/h (2 Bft) N-NW 338 -10,8 C -11,3 C 11,3 km/h (2 Bft)
24.02.2018 06:24 -7,8 C 79 % 1021,5 hPa 0,0 l/m 5,6 km/h (2 Bft) W-NW 294 -10,8 C -10,8 C 8,0 km/h (2 Bft)
24.02.2018 06:23 -7,8 C 79 % 1021,5 hPa 0,0 l/m 4,2 km/h (1 Bft) W-NW 290 -10,8 C -7,8 C 6,4 km/h (2 Bft)
24.02.2018 06:22 -7,8 C 79 % 1021,4 hPa 0,0 l/m 5,6 km/h (2 Bft) W-NW 289 -10,8 C -10,8 C 8,0 km/h (2 Bft)
24.02.2018 06:21 -7,8 C 79 % 1021,4 hPa 0,0 l/m 7,4 km/h (2 Bft) W-NW 289 -10,8 C -11,6 C 9,7 km/h (2 Bft)
24.02.2018 06:19 -7,9 C 79 % 1021,4 hPa 0,0 l/m 7,5 km/h (2 Bft) NW 309 -10,9 C -11,8 C 8,0 km/h (2 Bft)
24.02.2018 06:18 -7,8 C 79 % 1021,4 hPa 0,0 l/m 6,8 km/h (2 Bft) NW 311 -10,8 C -11,4 C 8,0 km/h (2 Bft)
24.02.2018 06:17 -7,8 C 79 % 1021,4 hPa 0,0 l/m 6,5 km/h (2 Bft) NW 310 -10,8 C -11,2 C 8,0 km/h (2 Bft)
24.02.2018 06:15 -7,8 C 79 % 1021,3 hPa 0,0 l/m 8,0 km/h (2 Bft) NW 306 -10,8 C -11,9 C 9,7 km/h (2 Bft)
24.02.2018 06:14 -7,8 C 78 % 1021,3 hPa 0,0 l/m 8,6 km/h (2 Bft) NW 306 -10,9 C -12,1 C 9,7 km/h (2 Bft)
24.02.2018 06:13 -7,8 C 78 % 1021,3 hPa 0,0 l/m 9,2 km/h (2 Bft) NW 305 -10,9 C -12,4 C 12,9 km/h (3 Bft)
24.02.2018 06:12 -7,8 C 78 % 1021,3 hPa 0,0 l/m 8,5 km/h (2 Bft) W-NW 302 -10,9 C -12,1 C 11,3 km/h (2 Bft)
24.02.2018 06:11 -7,8 C 78 % 1021,3 hPa 0,0 l/m 8,9 km/h (2 Bft) W-NW 293 -10,9 C -12,2 C 9,7 km/h (2 Bft)
24.02.2018 06:10 -7,8 C 78 % 1021,3 hPa 0,0 l/m 5,7 km/h (2 Bft) W-NW 284 -10,9 C -10,8 C 8,0 km/h (2 Bft)
24.02.2018 06:09 -7,8 C 78 % 1021,3 hPa 0,0 l/m 5,6 km/h (2 Bft) W-NW 288 -10,9 C -10,8 C 8,0 km/h (2 Bft)
24.02.2018 06:08 -7,7 C 78 % 1021,3 hPa 0,0 l/m 4,5 km/h (1 Bft) W-NW 286 -10,9 C -7,7 C 6,4 km/h (2 Bft)
24.02.2018 06:07 -7,7 C 78 % 1021,3 hPa 0,0 l/m 4,9 km/h (1 Bft) W-NW 285 -10,9 C -10,3 C 8,0 km/h (2 Bft)
24.02.2018 06:05 -7,6 C 78 % 1021,3 hPa 0,0 l/m 2,7 km/h (1 Bft) NW 306 -10,8 C -7,6 C 6,4 km/h (2 Bft)
24.02.2018 06:04 -7,6 C 78 % 1021,3 hPa 0,0 l/m 4,0 km/h (1 Bft) NW 306 -10,8 C -7,6 C 6,4 km/h (2 Bft)
24.02.2018 06:03 -7,5 C 78 % 1021,3 hPa 0,0 l/m 4,8 km/h (1 Bft) NW 306 -10,7 C -10,0 C 4,8 km/h (1 Bft)
24.02.2018 06:02 -7,5 C 78 % 1021,3 hPa 0,0 l/m 4,7 km/h (1 Bft) NW 312 -10,7 C -9,9 C 9,7 km/h (2 Bft)
24.02.2018 06:00 -7,4 C 78 % 1021,3 hPa 0,0 l/m 4,9 km/h (1 Bft) W-NW 293 -10,6 C -9,9 C 9,7 km/h (2 Bft)
24.02.2018 05:59 -7,4 C 78 % 1021,3 hPa 0,0 l/m 4,2 km/h (1 Bft) W-NW 291 -10,6 C -7,4 C 6,4 km/h (2 Bft)
24.02.2018 05:58 -7,4 C 78 % 1021,3 hPa 0,0 l/m 4,8 km/h (1 Bft) W-NW 291 -10,6 C -9,9 C 9,7 km/h (2 Bft)
24.02.2018 05:57 -7,4 C 79 % 1021,4 hPa 0,0 l/m 7,1 km/h (2 Bft) NW 309 -10,4 C -11,1 C 11,3 km/h (2 Bft)
24.02.2018 05:56 -7,4 C 79 % 1021,3 hPa 0,0 l/m 5,7 km/h (2 Bft) N-NW 333 -10,4 C -10,4 C 9,7 km/h (2 Bft)
24.02.2018 05:55 -7,5 C 79 % 1021,2 hPa 0,0 l/m 6,0 km/h (2 Bft) NW 314 -10,5 C -10,6 C 9,7 km/h (2 Bft)
24.02.2018 05:54 -7,5 C 79 % 1021,2 hPa 0,0 l/m 7,9 km/h (2 Bft) NW 318 -10,5 C -11,5 C 9,7 km/h (2 Bft)
24.02.2018 05:53 -7,6 C 79 % 1021,3 hPa 0,0 l/m 4,4 km/h (1 Bft) NW 316 -10,6 C -7,6 C 6,4 km/h (2 Bft)
24.02.2018 05:52 -7,6 C 79 % 1021,2 hPa 0,0 l/m 4,4 km/h (1 Bft) NW 319 -10,6 C -7,6 C 6,4 km/h (2 Bft)
24.02.2018 05:51 -7,6 C 79 % 1021,3 hPa 0,0 l/m 6,0 km/h (2 Bft) NW 317 -10,6 C -10,8 C 8,0 km/h (2 Bft)
24.02.2018 05:50 -7,6 C 79 % 1021,2 hPa 0,0 l/m 6,6 km/h (2 Bft) NW 319 -10,6 C -11,1 C 9,7 km/h (2 Bft)
24.02.2018 05:49 -7,6 C 79 % 1021,2 hPa 0,0 l/m 7,3 km/h (2 Bft) W-NW 293 -10,6 C -11,4 C 9,7 km/h (2 Bft)
24.02.2018 05:48 -7,6 C 79 % 1021,2 hPa 0,0 l/m 7,7 km/h (2 Bft) NW 309 -10,6 C -11,5 C 9,7 km/h (2 Bft)
24.02.2018 05:47 -7,6 C 78 % 1021,2 hPa 0,0 l/m 6,8 km/h (2 Bft) NW 306 -10,8 C -11,1 C 9,7 km/h (2 Bft)
24.02.2018 05:45 -7,6 C 78 % 1021,2 hPa 0,0 l/m 9,0 km/h (2 Bft) NW 310 -10,8 C -12,0 C 11,3 km/h (2 Bft)
24.02.2018 05:44 -7,6 C 78 % 1021,2 hPa 0,0 l/m 8,0 km/h (2 Bft) NW 311 -10,8 C -11,7 C 8,0 km/h (2 Bft)
24.02.2018 05:43 -7,5 C 78 % 1021,2 hPa 0,0 l/m 9,5 km/h (2 Bft) NW 311 -10,7 C -12,1 C 11,3 km/h (2 Bft)
24.02.2018 05:41 -7,4 C 78 % 1021,2 hPa 0,0 l/m 7,7 km/h (2 Bft) W-NW 300 -10,6 C -11,3 C 9,7 km/h (2 Bft)
24.02.2018 05:40 -7,4 C 78 % 1021,2 hPa 0,0 l/m 9,9 km/h (2 Bft) W-NW 301 -10,6 C -12,1 C 11,3 km/h (2 Bft)
24.02.2018 05:39 -7,4 C 78 % 1021,2 hPa 0,0 l/m 7,0 km/h (2 Bft) W-NW 302 -10,6 C -11,0 C 11,3 km/h (2 Bft)
24.02.2018 05:37 -7,3 C 78 % 1021,2 hPa 0,0 l/m 7,2 km/h (2 Bft) NW 307 -10,5 C -11,0 C 8,0 km/h (2 Bft)
24.02.2018 05:36 -7,3 C 78 % 1021,2 hPa 0,0 l/m 6,4 km/h (2 Bft) W-NW 302 -10,5 C -10,6 C 9,7 km/h (2 Bft)
24.02.2018 05:35 -7,3 C 78 % 1021,3 hPa 0,0 l/m 6,7 km/h (2 Bft) NW 316 -10,5 C -10,8 C 9,7 km/h (2 Bft)
24.02.2018 05:34 -7,3 C 78 % 1021,3 hPa 0,0 l/m 6,3 km/h (2 Bft) NW 313 -10,5 C -10,6 C 8,0 km/h (2 Bft)
24.02.2018 05:33 -7,3 C 78 % 1021,2 hPa 0,0 l/m 7,7 km/h (2 Bft) NW 312 -10,5 C -11,2 C 9,7 km/h (2 Bft)
24.02.2018 05:32 -7,2 C 78 % 1021,2 hPa 0,0 l/m 7,2 km/h (2 Bft) NW 319 -10,4 C -10,9 C 9,7 km/h (2 Bft)
24.02.2018 05:31 -7,2 C 78 % 1021,2 hPa 0,0 l/m 6,8 km/h (2 Bft) W-NW 301 -10,4 C -10,7 C 8,0 km/h (2 Bft)
24.02.2018 05:30 -7,1 C 78 % 1021,2 hPa 0,0 l/m 5,7 km/h (2 Bft) NW 309 -10,3 C -10,0 C 11,3 km/h (2 Bft)
24.02.2018 05:29 -7,1 C 78 % 1021,2 hPa 0,0 l/m 7,6 km/h (2 Bft) NW 322 -10,3 C -10,9 C 11,3 km/h (2 Bft)
24.02.2018 05:28 -7,1 C 78 % 1021,2 hPa 0,0 l/m 6,8 km/h (2 Bft) N-NW 338 -10,3 C -10,6 C 11,3 km/h (2 Bft)
24.02.2018 05:27 -7,1 C 78 % 1021,2 hPa 0,0 l/m 6,4 km/h (2 Bft) W-NW 298 -10,3 C -10,4 C 9,7 km/h (2 Bft)
24.02.2018 05:26 -7,1 C 78 % 1021,2 hPa 0,0 l/m 7,7 km/h (2 Bft) NW 309 -10,3 C -11,0 C 9,7 km/h (2 Bft)
24.02.2018 05:25 -7,1 C 78 % 1021,2 hPa 0,0 l/m 6,2 km/h (2 Bft) NW 309 -10,3 C -10,3 C 8,0 km/h (2 Bft)
24.02.2018 05:24 -7,1 C 78 % 1021,2 hPa 0,0 l/m 6,1 km/h (2 Bft) NW 312 -10,3 C -10,2 C 9,7 km/h (2 Bft)
24.02.2018 05:23 -7,1 C 78 % 1021,2 hPa 0,0 l/m 6,6 km/h (2 Bft) NW 315 -10,3 C -10,5 C 9,7 km/h (2 Bft)
24.02.2018 05:22 -7,1 C 78 % 1021,2 hPa 0,0 l/m 6,7 km/h (2 Bft) W-NW 300 -10,3 C -10,5 C 9,7 km/h (2 Bft)
24.02.2018 05:20 -7,1 C 78 % 1021,1 hPa 0,0 l/m 8,1 km/h (2 Bft) NW 314 -10,3 C -11,1 C 9,7 km/h (2 Bft)
24.02.2018 05:19 -7,1 C 78 % 1021,1 hPa 0,0 l/m 5,6 km/h (2 Bft) NW 319 -10,3 C -10,0 C 8,0 km/h (2 Bft)
24.02.2018 05:18 -7,1 C 78 % 1021,1 hPa 0,0 l/m 8,7 km/h (2 Bft) NW 319 -10,3 C -11,3 C 12,9 km/h (3 Bft)
24.02.2018 05:16 -7,2 C 78 % 1021,1 hPa 0,0 l/m 5,9 km/h (2 Bft) NW 311 -10,4 C -10,3 C 9,7 km/h (2 Bft)
24.02.2018 05:15 -7,2 C 78 % 1021,2 hPa 0,0 l/m 3,7 km/h (1 Bft) NW 309 -10,4 C -7,2 C 6,4 km/h (2 Bft)
24.02.2018 05:14 -7,2 C 78 % 1021,2 hPa 0,0 l/m 6,7 km/h (2 Bft) NW 315 -10,4 C -10,6 C 8,0 km/h (2 Bft)
24.02.2018 05:13 -7,2 C 78 % 1021,2 hPa 0,0 l/m 5,6 km/h (2 Bft) NW 307 -10,4 C -10,1 C 8,0 km/h (2 Bft)
24.02.2018 05:11 -7,2 C 78 % 1021,1 hPa 0,0 l/m 7,6 km/h (2 Bft) NW 307 -10,4 C -11,0 C 8,0 km/h (2 Bft)
24.02.2018 05:10 -7,1 C 78 % 1021,1 hPa 0,0 l/m 5,6 km/h (2 Bft) W-NW 303 -10,3 C -10,0 C 9,7 km/h (2 Bft)
24.02.2018 05:08 -7,1 C 78 % 1021,1 hPa 0,0 l/m 6,0 km/h (2 Bft) W-NW 300 -10,3 C -10,2 C 6,4 km/h (2 Bft)
24.02.2018 05:07 -7,0 C 78 % 1021,0 hPa 0,0 l/m 7,0 km/h (2 Bft) NW 306 -10,2 C -10,5 C 11,3 km/h (2 Bft)
24.02.2018 05:05 -6,9 C 78 % 1021,1 hPa 0,0 l/m 6,9 km/h (2 Bft) NW 307 -10,1 C -10,4 C 9,7 km/h (2 Bft)
24.02.2018 05:04 -6,9 C 78 % 1021,0 hPa 0,0 l/m 8,8 km/h (2 Bft) NW 306 -10,1 C -11,1 C 11,3 km/h (2 Bft)
24.02.2018 05:03 -6,9 C 78 % 1021,1 hPa 0,0 l/m 6,9 km/h (2 Bft) NW 313 -10,1 C -10,4 C 11,3 km/h (2 Bft)
24.02.2018 05:01 -6,8 C 78 % 1021,1 hPa 0,0 l/m 8,4 km/h (2 Bft) NW 309 -10,0 C -10,9 C 11,3 km/h (2 Bft)
24.02.2018 05:00 -6,8 C 78 % 1021,0 hPa 0,0 l/m 9,8 km/h (2 Bft) NW 312 -10,0 C -11,4 C 11,3 km/h (2 Bft)
24.02.2018 04:59 -6,8 C 78 % 1021,0 hPa 0,0 l/m 6,9 km/h (2 Bft) N 355 -10,0 C -10,3 C 11,3 km/h (2 Bft)
24.02.2018 04:58 -6,8 C 78 % 1021,0 hPa 0,0 l/m 5,8 km/h (2 Bft) N-NW 341 -10,0 C -9,7 C 11,3 km/h (2 Bft)
_ Min-Zeit 06:43 15:10 14:06 - 06:05 - - 06:43 06:47 06:03
Minimum _ -8,0 C 64 % 1017,5 hPa - 2,7 km/h (1 Bft) - - -11,1 C -13,3 C 4,8 km/h (1 Bft)
_ Max-Zeit 14:56 00:44 06:50 07:00 11:55 - - 13:55 14:12 16:22
Maximum _ 0,3 C 86 % 1021,8 hPa 0,0 l/m 23,1 km/h
N (4 Bft)
- - -5,0 C -2,3 C 32,2 km/h
N (5 Bft)
Durchschnitt _ -3,6 C 75 % 1019,1 hPa #0,0 l/m 12,3 km/h (2 Bft) N - -7,4 C -8,1 C 17,9 km/h (3 Bft)
Wetterstation Eggerszell